M I D A S
Marine Information and Data Acquisition System
Tripno 2002 of the Zeeleeuw from 2010-12-20 08:39:17 to 2010-12-20 16:13:24
Back to CruiseResearch ActivitiesStationsMapUnderway DataData graphs

EquipmentUnitsComment
TimeDGPSUTC
LatitudeDGPSDM.mWGS84
LongitudeDGPSDM.mWGS84
TemperatureSBE03/SBE38deg celciusITS90
ConductivitySBE21S/mITS90
SalinitySBE21 Practical Salinity Units
ChlorophylAChelsea fluorimeterg/lCalibrated in Aceton
Missing or incorrect values are displayed as -999
Sea surface data collected by the RV Zeeleeuw from 2010-12-20 08:33:48 to 2010-12-20 16:21:29
Time Latitude Longitude Temperature Conductivity Salinity ChlorophylA
2010-12-20 08:34:52 51°13.664 2°55.961 -999 -999 -999 -999
2010-12-20 08:35:52 51°13.663 2°55.961 -999 -999 -999 -999
2010-12-20 08:36:52 51°13.66 2°55.959 -999 -999 -999 -999
2010-12-20 08:37:52 51°13.664 2°55.961 -999 -999 -999 -999
2010-12-20 08:38:52 51°13.663 2°55.961 -999 -999 -999 -999
2010-12-20 08:39:52 51°13.663 2°55.961 -999 -999 -999 -999
2010-12-20 08:40:52 51°13.662 2°55.959 -999 -999 -999 -999
2010-12-20 08:41:55 51°13.673 2°55.92 -999 -999 -999 -999
2010-12-20 08:42:55 51°13.681 2°55.843 -999 -999 -999 -999
2010-12-20 08:43:55 51°13.686 2°55.763 -999 -999 -999 -999
2010-12-20 08:44:53 51°13.694 2°55.75 10.4769 0.075568 0.453637 -2.881067
2010-12-20 08:45:54 51°13.696 2°55.749 -999 -999 -999 -999
2010-12-20 08:46:51 51°13.713 2°55.739 3.3358 -999 -999 -2.532827
2010-12-20 08:47:52 51°13.781 2°55.677 -999 -999 -999 -999
2010-12-20 08:48:52 51°13.883 2°55.591 -999 -999 -999 -999
2010-12-20 08:49:55 51°14.009 2°55.502 -999 -999 -999 -999
2010-12-20 08:50:56 51°14.134 2°55.41 -999 -999 -999 -999
2010-12-20 08:51:55 51°14.259 2°55.316 -999 -999 -999 -999
2010-12-20 08:52:55 51°14.396 2°55.164 -999 -999 -999 -999
2010-12-20 08:53:55 51°14.537 2°54.999 -999 -999 -999 -999
2010-12-20 08:54:53 51°14.679 2°54.843 -999 -999 -999 -999
2010-12-20 08:55:52 51°14.822 2°54.683 -999 -999 -999 -999
2010-12-20 08:56:55 51°14.972 2°54.509 -999 -999 -999 -999
2010-12-20 08:57:53 51°15.11 2°54.346 -999 -999 -999 -999
2010-12-20 08:58:51 51°15.243 2°54.174 -999 -999 -999 -999
2010-12-20 08:59:52 51°15.384 2°53.995 -999 -999 -999 -999
2010-12-20 09:00:52 51°15.529 2°53.826 -999 -999 -999 -999
2010-12-20 09:01:52 51°15.691 2°53.691 3.1175 2.8076 30.291105 1.262995
2010-12-20 09:02:52 51°15.855 2°53.559 3.1784 2.817077 30.373437 1.123699
2010-12-20 09:03:52 51°16.022 2°53.438 3.2437 2.83024 30.474929 0.949579
2010-12-20 09:04:52 51°16.186 2°53.318 3.0753 2.836874 30.539315 0.949579
2010-12-20 09:05:52 51°16.353 2°53.201 3.046 2.804651 30.279617 1.054051
2010-12-20 09:06:52 51°16.52 2°53.084 3.0548 2.798333 30.226314 1.054051
2010-12-20 09:07:52 51°16.685 2°52.965 3.0562 2.797175 30.211684 1.123699
2010-12-20 09:08:52 51°16.851 2°52.846 3.0753 2.796438 30.197024 1.054051
2010-12-20 09:09:52 51°17.014 2°52.726 3.0969 2.800544 30.224866 1.088875
2010-12-20 09:10:52 51°17.178 2°52.606 3.108 2.80265 30.233937 1.088875
2010-12-20 09:11:52 51°17.343 2°52.486 3.1113 2.803177 30.233472 1.054051
2010-12-20 09:12:52 51°17.507 2°52.363 3.1052 2.80444 30.242609 1.088875
2010-12-20 09:13:52 51°17.672 2°52.242 3.1349 2.80423 30.246831 1.019227
2010-12-20 09:14:52 51°17.835 2°52.121 3.1658 2.81118 30.307565 0.984403
2010-12-20 09:15:52 51°18.001 2°52.001 3.2046 2.81834 30.358103 1.054051
2010-12-20 09:16:52 51°18.175 2°51.871 3.2298 2.824027 30.387699 1.054051
2010-12-20 09:17:52 51°18.352 2°51.742 3.2964 2.830556 30.431439 0.914755
2010-12-20 09:18:52 51°18.529 2°51.609 3.3161 2.842245 30.523581 0.845107
2010-12-20 09:19:52 51°18.707 2°51.476 3.3867 2.849722 30.587635 0.740634
2010-12-20 09:20:52 51°18.884 2°51.343 3.3656 2.864255 30.701249 0.740634
2010-12-20 09:21:52 51°19.064 2°51.22 3.4186 2.865624 30.73268 0.670986
2010-12-20 09:22:52 51°19.246 2°51.099 3.4536 2.876471 30.812624 0.670986
2010-12-20 09:23:52 51°19.427 2°50.978 3.4969 2.885107 30.879011 0.670986
2010-12-20 09:24:52 51°19.611 2°50.857 3.6036 2.892374 30.946979 0.670986
2010-12-20 09:25:52 51°19.792 2°50.741 3.8908 2.929026 31.181395 0.601338
2010-12-20 09:26:52 51°19.972 2°50.624 3.9468 2.96568 31.428198 0.601338
2010-12-20 09:27:52 51°20.152 2°50.506 3.9607 2.976318 31.500641 0.601338
2010-12-20 09:28:52 51°20.332 2°50.385 3.981 2.980005 31.531796 0.566514
2010-12-20 09:29:52 51°20.514 2°50.263 3.927 2.98327 31.553744 0.53169
2010-12-20 09:30:52 51°20.667 2°50.161 3.8852 2.973053 31.486337 0.566514
2010-12-20 09:31:52 51°20.799 2°50.075 3.8524 2.965364 31.438143 0.566514
2010-12-20 09:32:52 51°20.928 2°49.989 3.8196 2.960624 31.407361 0.53169
2010-12-20 09:33:52 51°21.058 2°49.905 3.7812 2.954093 31.358963 0.566514
2010-12-20 09:34:52 51°21.189 2°49.822 3.761 2.945878 31.304365 0.566514
2010-12-20 09:35:52 51°21.32 2°49.74 3.7099 2.942823 31.287263 0.53169
2010-12-20 09:36:52 51°21.455 2°49.657 3.7278 2.935451 31.242424 0.566514
2010-12-20 09:37:52 51°21.614 2°49.559 3.6918 2.934187 31.238649 0.53169
2010-12-20 09:38:52 51°21.805 2°49.441 3.6774 2.928815 31.201911 0.53169
2010-12-20 09:39:52 51°22 2°49.324 3.8173 2.931554 31.222183 0.566514
2010-12-20 09:40:52 51°22.191 2°49.211 4.4164 2.984219 31.584472 0.53169
2010-12-20 09:41:52 51°22.381 2°49.093 4.5338 3.075025 32.197295 0.496866
2010-12-20 09:42:52 51°22.569 2°48.978 4.575 3.096623 32.35263 0.53169
2010-12-20 09:43:52 51°22.754 2°48.861 4.5839 3.103471 32.394761 0.496866
2010-12-20 09:44:52 51°22.942 2°48.744 4.5837 3.105578 32.40877 0.462042
2010-12-20 09:45:52 51°23.13 2°48.625 4.5672 3.105367 32.408919 0.462042
2010-12-20 09:46:52 51°23.32 2°48.501 4.5196 3.102733 32.394848 0.462042
2010-12-20 09:47:52 51°23.512 2°48.382 4.4794 3.094516 32.347199 0.462042
2010-12-20 09:48:52 51°23.706 2°48.267 4.4646 3.089248 32.317243 0.427218
2010-12-20 09:49:52 51°23.902 2°48.15 4.4587 3.088721 32.3232 0.427218
2010-12-20 09:50:52 51°24.095 2°48.036 4.6406 3.094305 32.358538 0.427218
2010-12-20 09:51:52 51°24.288 2°47.92 4.7025 3.122119 32.52731 0.392394
2010-12-20 09:52:52 51°24.484 2°47.802 4.6906 3.130337 32.57894 0.427218
2010-12-20 09:53:52 51°24.681 2°47.682 4.7199 3.129178 32.569035 0.392394
2010-12-20 09:54:52 51°24.879 2°47.559 4.7524 3.134341 32.589723 0.427218
2010-12-20 09:55:52 51°25.067 2°47.403 4.7536 3.138029 32.619242 0.392394
2010-12-20 09:56:52 51°25.25 2°47.245 5.416 3.141295 32.646482 0.392394
2010-12-20 09:57:52 51°25.429 2°47.091 5.4565 3.241503 33.156388 0.462042
2010-12-20 09:58:52 51°25.609 2°46.936 5.516 3.253411 33.239843 0.427218
2010-12-20 09:59:52 51°25.788 2°46.783 5.571 3.264266 33.288884 0.427218
2010-12-20 10:00:52 51°25.968 2°46.628 5.6312 3.272802 33.33389 0.427218
2010-12-20 10:01:52 51°26.149 2°46.476 5.7332 3.28176 33.37156 0.392394
2010-12-20 10:02:52 51°26.329 2°46.322 5.7701 3.295776 33.438691 0.427218
2010-12-20 10:03:52 51°26.509 2°46.165 5.7755 3.301362 33.470714 0.392394
2010-12-20 10:04:52 51°26.69 2°46.01 5.7659 3.302416 33.481709 0.392394
2010-12-20 10:05:52 51°26.873 2°45.85 5.757 3.302626 33.486648 0.392394
2010-12-20 10:06:52 51°27.058 2°45.691 5.7451 3.301573 33.483357 0.392394
2010-12-20 10:07:52 51°27.243 2°45.534 5.7484 3.299781 33.478618 0.392394
2010-12-20 10:08:52 51°27.429 2°45.377 5.7968 3.302416 33.499696 0.392394
2010-12-20 10:09:52 51°27.617 2°45.224 5.8258 3.309688 33.539487 0.35757
2010-12-20 10:10:52 51°27.804 2°45.072 6.2109 3.313377 33.563806 0.35757
2010-12-20 10:11:52 51°27.989 2°44.922 6.3431 3.374612 33.831466 0.35757
2010-12-20 10:12:52 51°28.177 2°44.775 6.3829 3.39506 33.957323 0.392394
2010-12-20 10:13:52 51°28.363 2°44.627 6.4272 3.402966 33.997316 0.35757
2010-12-20 10:14:52 51°28.55 2°44.478 6.4222 3.408341 34.021127 0.392394
2010-12-20 10:15:52 51°28.738 2°44.329 6.4242 3.407814 34.020398 0.35757
2010-12-20 10:16:52 51°28.926 2°44.177 6.4311 3.408658 34.02378 0.35757
2010-12-20 10:17:52 51°29.112 2°44.025 6.4385 3.409395 34.024288 0.392394
2010-12-20 10:18:52 51°29.299 2°43.872 6.4648 3.411293 34.03594 0.392394
2010-12-20 10:19:52 51°29.486 2°43.719 6.4901 3.416563 34.059383 0.392394
2010-12-20 10:20:52 51°29.673 2°43.57 6.5041 3.419515 34.075871 0.35757
2010-12-20 10:21:52 51°29.861 2°43.421 6.5215 3.421306 34.081222 0.35757
2010-12-20 10:22:52 51°30.057 2°43.338 6.5549 3.424469 34.100876 0.322746
2010-12-20 10:23:52 51°30.262 2°43.47 6.575 3.430899 34.131945 0.35757
2010-12-20 10:24:52 51°30.468 2°43.604 6.5895 3.433956 34.144437 0.392394
2010-12-20 10:25:52 51°30.674 2°43.74 6.6351 3.437118 34.162339 0.322746
2010-12-20 10:26:52 51°30.88 2°43.876 6.6426 3.443864 34.192547 0.287922
2010-12-20 10:27:52 51°31.086 2°44.014 6.6573 3.44397 34.199665 0.322746
2010-12-20 10:28:52 51°31.294 2°44.151 6.6556 3.4465 34.214808 0.322746
2010-12-20 10:29:52 51°31.509 2°44.289 6.6717 3.447765 34.218547 0.322746
2010-12-20 10:30:52 51°31.726 2°44.433 6.7652 3.453035 34.246869 0.322746
2010-12-20 10:31:52 51°31.943 2°44.583 6.8326 3.468215 34.322979 0.287922
2010-12-20 10:32:52 51°32.163 2°44.711 6.8772 3.476332 34.362048 0.287922
2010-12-20 10:33:52 51°32.384 2°44.828 6.8952 3.483079 34.391099 0.322746
2010-12-20 10:34:52 51°32.608 2°44.947 6.9058 3.48698 34.41436 0.287922
2010-12-20 10:35:52 51°32.83 2°45.066 6.9071 3.489931 34.439093 0.287922
2010-12-20 10:36:52 51°33.054 2°45.184 6.8964 3.490564 34.445181 0.287922
2010-12-20 10:37:52 51°33.276 2°45.3 6.8797 3.489194 34.442048 0.322746
2010-12-20 10:38:52 51°33.497 2°45.425 6.8741 3.487296 34.431428 0.322746
2010-12-20 10:39:52 51°33.717 2°45.546 6.8694 3.486558 34.431832 0.322746
2010-12-20 10:40:52 51°33.939 2°45.657 6.8715 3.48582 34.425432 0.287922
2010-12-20 10:41:52 51°34.161 2°45.76 6.8817 3.486558 34.430131 0.322746
2010-12-20 10:42:52 51°34.383 2°45.855 6.8929 3.487191 34.42772 0.322746
2010-12-20 10:43:52 51°34.61 2°45.911 6.9062 3.488666 34.437115 0.322746
2010-12-20 10:44:52 51°34.836 2°45.964 6.9235 3.49088 34.443551 0.287922
2010-12-20 10:45:52 51°35.061 2°46.022 6.942 3.494043 34.461236 0.322746
2010-12-20 10:46:52 51°35.285 2°46.082 6.9608 3.496257 34.469359 0.322746
2010-12-20 10:47:52 51°35.509 2°46.152 6.9778 3.499841 34.483149 0.322746
2010-12-20 10:48:52 51°35.733 2°46.218 7.0104 3.502793 34.501039 0.322746
2010-12-20 10:49:52 51°35.957 2°46.285 7.0413 3.508275 34.519439 0.322746
2010-12-20 10:50:52 51°36.171 2°46.423 7.0778 3.511753 34.532033 0.287922
2010-12-20 10:51:52 51°36.387 2°46.575 7.0986 3.516287 34.554438 0.287922
2010-12-20 10:52:52 51°36.606 2°46.71 7.1174 3.520082 34.572153 0.322746
2010-12-20 10:53:52 51°36.826 2°46.83 7.1416 3.522612 34.583671 0.322746
2010-12-20 10:54:52 51°37.047 2°46.945 7.1679 3.526302 34.601056 0.287922
2010-12-20 10:55:52 51°37.268 2°47.061 7.1833 3.53073 34.622237 0.287922
2010-12-20 10:56:52 51°37.488 2°47.179 7.2052 3.533998 34.638381 0.287922
2010-12-20 10:57:52 51°37.71 2°47.302 7.2357 3.537688 34.655719 0.287922
2010-12-20 10:58:52 51°37.931 2°47.428 7.2653 3.542221 34.673757 0.322746
2010-12-20 10:59:52 51°38.152 2°47.54 7.2743 3.5457 34.688767 0.253098
2010-12-20 11:00:52 51°38.374 2°47.662 7.2909 3.547914 34.701006 0.287922
2010-12-20 11:01:52 51°38.595 2°47.79 7.2948 3.550023 34.712938 0.287922
2010-12-20 11:02:52 51°38.815 2°47.915 7.3016 3.551183 34.717087 0.287922
2010-12-20 11:03:52 51°39.035 2°48.045 7.3097 3.552659 34.725519 0.287922
2010-12-20 11:04:52 51°39.254 2°48.182 7.3237 3.553818 34.727972 0.287922
2010-12-20 11:05:52 51°39.473 2°48.315 7.3282 3.554135 34.72295 0.287922
2010-12-20 11:06:52 51°39.693 2°48.442 7.3264 3.555294 34.727095 0.287922
2010-12-20 11:07:52 51°39.911 2°48.578 7.3261 3.554978 34.724504 0.322746
2010-12-20 11:08:52 51°40.132 2°48.712 7.3272 3.555716 34.731677 0.322746
2010-12-20 11:09:52 51°40.352 2°48.839 7.3313 3.556032 34.737651 0.287922
2010-12-20 11:10:52 51°40.572 2°48.965 7.3346 3.556349 34.736858 0.287922
2010-12-20 11:11:52 51°40.791 2°49.1 7.34 3.557403 34.744084 0.322746
2010-12-20 11:12:52 51°41.011 2°49.233 7.3486 3.558668 34.749369 0.287922
2010-12-20 11:13:52 51°41.228 2°49.373 7.3603 3.559406 34.748082 0.287922
2010-12-20 11:14:52 51°41.448 2°49.494 7.3719 3.560988 34.753418 0.287922
2010-12-20 11:15:52 51°41.673 2°49.597 7.3824 3.562991 34.762483 0.322746
2010-12-20 11:16:52 51°41.874 2°49.528 7.3834 3.563307 34.766762 0.287922
2010-12-20 11:17:52 51°42.061 2°49.358 7.3985 3.562885 34.765566 0.253098
2010-12-20 11:18:52 51°42.229 2°49.147 7.4122 3.564361 34.767216 0.287922
2010-12-20 11:19:52 51°42.367 2°48.896 7.425 3.565626 34.767423 0.287922
2010-12-20 11:20:52 51°42.444 2°48.6 7.4374 3.566892 34.772699 0.253098
2010-12-20 11:21:52 51°42.365 2°48.373 7.4489 3.568262 34.777427 0.322746
2010-12-20 11:22:52 51°42.175 2°48.306 7.452 3.569211 34.767454 0.253098
2010-12-20 11:23:52 51°41.988 2°48.208 7.4492 3.569738 34.776543 0.253098
2010-12-20 11:24:52 51°41.807 2°48.093 7.4391 3.569211 34.77505 0.287922
2010-12-20 11:25:52 51°41.621 2°47.99 7.438 3.56784 34.765257 0.287922
2010-12-20 11:26:52 51°41.438 2°47.874 7.4358 3.56784 34.767789 0.253098
2010-12-20 11:27:52 51°41.263 2°47.739 7.431 3.567419 34.766593 0.253098
2010-12-20 11:28:52 51°41.091 2°47.595 7.4271 3.566786 34.766488 0.253098
2010-12-20 11:29:52 51°40.919 2°47.452 7.4227 3.566681 34.76619 0.253098
2010-12-20 11:30:52 51°40.746 2°47.313 7.4275 3.56531 34.753015 0.253098
2010-12-20 11:31:52 51°40.573 2°47.175 7.4175 3.56531 34.755547 0.287922
2010-12-20 11:32:52 51°40.392 2°47.064 7.417 3.564256 34.749178 0.253098
2010-12-20 11:33:52 51°40.207 2°46.965 7.4148 3.563518 34.745395 0.253098
2010-12-20 11:34:52 51°40.027 2°46.854 7.4044 3.562885 34.744443 0.287922
2010-12-20 11:35:52 51°39.854 2°46.714 7.4007 3.562674 34.745533 0.253098
2010-12-20 11:36:52 51°39.681 2°46.569 7.3959 3.562885 34.74951 0.287922
2010-12-20 11:37:52 51°39.508 2°46.431 7.3903 3.562569 34.752836 0.253098
2010-12-20 11:38:52 51°39.335 2°46.294 7.3916 3.561831 34.747361 0.253098
2010-12-20 11:39:52 51°39.161 2°46.153 7.3906 3.56162 34.748452 0.253098
2010-12-20 11:40:52 51°38.988 2°46.018 7.3854 3.561515 34.743929 0.287922
2010-12-20 11:41:52 51°38.815 2°45.877 7.3831 3.560671 34.744068 0.253098
2010-12-20 11:42:52 51°38.642 2°45.735 7.38 3.560882 34.745512 0.287922
2010-12-20 11:43:52 51°38.469 2°45.598 7.3747 3.560249 34.74287 0.253098
2010-12-20 11:44:52 51°38.288 2°45.486 7.3744 3.559195 34.73903 0.253098
2010-12-20 11:45:52 51°38.105 2°45.379 7.3701 3.559617 34.739383 0.287922
2010-12-20 11:46:52 51°37.922 2°45.276 7.3742 3.558984 34.737585 0.253098
2010-12-20 11:47:52 51°37.74 2°45.178 7.384 3.559511 34.738238 0.253098
2010-12-20 11:48:52 51°37.557 2°45.077 7.4029 3.560776 34.737609 0.287922
2010-12-20 11:49:52 51°37.377 2°44.966 7.4336 3.562885 34.741065 0.253098
2010-12-20 11:50:52 51°37.197 2°44.856 7.4726 3.56668 34.750154 0.253098
2010-12-20 11:51:52 51°37.018 2°44.747 7.5039 3.570792 34.758445 0.287922
2010-12-20 11:52:52 51°36.838 2°44.641 7.5168 3.574482 34.771432 0.287922
2010-12-20 11:53:52 51°36.659 2°44.534 7.5103 3.575747 34.778385 0.253098
2010-12-20 11:54:52 51°36.482 2°44.429 7.5042 3.575642 34.779771 0.253098
2010-12-20 11:55:52 51°36.304 2°44.326 7.4844 3.573955 34.774152 0.287922
2010-12-20 11:56:52 51°36.125 2°44.222 7.4676 3.572163 34.772446 0.253098
2010-12-20 11:57:52 51°35.947 2°44.11 7.4337 3.569 34.760108 0.253098
2010-12-20 11:58:52 51°35.769 2°44.002 7.413 3.565732 34.74746 0.253098
2010-12-20 11:59:52 51°35.591 2°43.898 7.401 3.562885 34.738533 0.253098
2010-12-20 12:00:52 51°35.415 2°43.792 7.3864 3.560987 34.731452 0.287922
2010-12-20 12:01:52 51°35.237 2°43.681 7.3765 3.558246 34.716903 0.253098
2010-12-20 12:02:52 51°35.061 2°43.571 7.3626 3.556981 34.712458 0.253098
2010-12-20 12:03:52 51°34.883 2°43.462 7.3551 3.555505 34.709945 0.253098
2010-12-20 12:04:52 51°34.706 2°43.352 7.3467 3.554978 34.705065 0.253098
2010-12-20 12:05:52 51°34.529 2°43.244 7.3527 3.554345 34.702419 0.253098
2010-12-20 12:06:52 51°34.353 2°43.134 7.3551 3.554029 34.701518 0.253098
2010-12-20 12:07:52 51°34.176 2°43.026 7.3648 3.553923 34.695305 0.253098
2010-12-20 12:08:52 51°34 2°42.912 7.3614 3.555399 34.704577 0.253098
2010-12-20 12:09:52 51°33.822 2°42.797 7.3612 3.55561 34.709401 0.253098
2010-12-20 12:10:52 51°33.646 2°42.685 7.3583 3.555189 34.703977 0.253098
2010-12-20 12:11:52 51°33.467 2°42.572 7.3635 3.555294 34.704277 0.218274
2010-12-20 12:12:52 51°33.29 2°42.457 7.3659 3.555716 34.707167 0.253098
2010-12-20 12:13:52 51°33.114 2°42.345 7.3621 3.555505 34.704878 0.253098
2010-12-20 12:14:52 51°32.94 2°42.229 7.3319 3.555505 34.709945 0.218274
2010-12-20 12:15:52 51°32.765 2°42.116 7.3028 3.551077 34.695641 0.253098
2010-12-20 12:16:52 51°32.589 2°42.004 7.289 3.547598 34.678109 0.218274
2010-12-20 12:17:52 51°32.414 2°41.89 7.267 3.543486 34.656219 0.287922
2010-12-20 12:18:52 51°32.237 2°41.775 7.2531 3.540429 34.64071 0.253098
2010-12-20 12:19:52 51°32.065 2°41.653 7.2541 3.538637 34.633888 0.253098
2010-12-20 12:20:52 51°32.026 2°41.366 7.2541 3.540007 34.63274 0.253098
2010-12-20 12:21:52 51°32.048 2°41.047 7.2495 3.537688 34.622715 0.253098
2010-12-20 12:22:52 51°32.074 2°40.727 7.2656 3.537898 34.622473 0.218274
2010-12-20 12:23:52 51°32.103 2°40.406 7.273 3.539902 34.629902 0.253098
2010-12-20 12:24:52 51°32.13 2°40.083 7.2886 3.541377 34.635819 0.287922
2010-12-20 12:25:52 51°32.159 2°39.758 7.3327 3.544646 34.650239 0.218274
2010-12-20 12:26:52 51°32.185 2°39.435 7.3744 3.551182 34.680733 0.253098
2010-12-20 12:27:52 51°32.268 2°39.148 7.4259 3.557192 34.702928 0.253098
2010-12-20 12:28:52 51°32.49 2°39.177 7.4547 3.564677 34.728441 0.218274
2010-12-20 12:29:52 51°32.699 2°39.358 7.4728 3.568578 34.748793 0.253098
2010-12-20 12:30:52 51°32.873 2°39.627 7.4775 3.57037 34.755564 0.218274
2010-12-20 12:31:52 51°33.048 2°39.895 7.479 3.57037 34.753035 0.253098
2010-12-20 12:32:52 51°33.253 2°40.095 7.4779 3.570687 34.755618 0.218274
2010-12-20 12:33:52 51°33.481 2°40.216 7.4911 3.571425 34.758554 0.218274
2010-12-20 12:34:52 51°33.712 2°40.326 7.5106 3.572795 34.762439 0.218274
2010-12-20 12:35:52 51°33.941 2°40.444 7.5244 3.575747 34.773331 0.253098
2010-12-20 12:36:52 51°34.165 2°40.581 7.5471 3.578172 34.78188 0.253098
2010-12-20 12:37:52 51°34.39 2°40.719 7.562 3.580386 34.786462 0.253098
2010-12-20 12:38:52 51°34.613 2°40.863 7.584 3.5826 34.799455 0.253098
2010-12-20 12:39:52 51°34.836 2°41.008 7.628 3.585869 34.805325 0.253098
2010-12-20 12:40:52 51°35.061 2°41.151 7.6465 3.591351 34.823323 0.253098
2010-12-20 12:41:52 51°35.284 2°41.293 7.6516 3.592933 34.826943 0.218274
2010-12-20 12:42:52 51°35.506 2°41.433 7.653 3.593671 34.829024 0.253098
2010-12-20 12:43:52 51°35.731 2°41.574 7.6536 3.593565 34.830406 0.253098
2010-12-20 12:44:52 51°35.954 2°41.717 7.6522 3.593776 34.829321 0.218274
2010-12-20 12:45:52 51°36.177 2°41.857 7.6479 3.592722 34.820469 0.253098
2010-12-20 12:46:52 51°36.402 2°41.996 7.6535 3.592405 34.818737 0.253098
2010-12-20 12:47:52 51°36.628 2°42.137 7.6451 3.5923 34.8176 0.218274
2010-12-20 12:48:52 51°36.855 2°42.273 7.6483 3.591773 34.813593 0.253098
2010-12-20 12:49:52 51°37.081 2°42.41 7.6465 3.591246 34.806228 0.218274
2010-12-20 12:50:52 51°37.308 2°42.549 7.6456 3.591246 34.807067 0.253098
2010-12-20 12:51:52 51°37.536 2°42.686 7.6435 3.591456 34.810181 0.287922
2010-12-20 12:52:52 51°37.765 2°42.822 7.6428 3.591035 34.808991 0.253098
2010-12-20 12:53:52 51°37.993 2°42.962 7.6393 3.590718 34.805579 0.218274
2010-12-20 12:54:52 51°38.223 2°43.098 7.6435 3.590402 34.805525 0.253098
2010-12-20 12:55:52 51°38.453 2°43.234 7.6373 3.590718 34.805579 0.287922
2010-12-20 12:56:52 51°38.684 2°43.369 7.6339 3.589453 34.796129 0.253098
2010-12-20 12:57:52 51°38.914 2°43.506 7.6347 3.58861 34.788709 0.218274
2010-12-20 12:58:52 51°39.144 2°43.641 7.6271 3.587977 34.781885 0.253098
2010-12-20 12:59:52 51°39.374 2°43.776 7.6242 3.589137 34.801112 0.218274
2010-12-20 13:00:52 51°39.603 2°43.909 7.6192 3.588715 34.799081 0.253098
2010-12-20 13:01:52 51°39.834 2°44.04 7.6189 3.588504 34.801005 0.287922
2010-12-20 13:02:52 51°40.061 2°44.189 7.6165 3.587345 34.791009 0.253098
2010-12-20 13:03:52 51°40.287 2°44.342 7.6218 3.587028 34.785916 0.253098
2010-12-20 13:04:52 51°40.514 2°44.492 7.6207 3.587028 34.788435 0.253098
2010-12-20 13:05:52 51°40.74 2°44.641 7.6292 3.587555 34.789926 0.253098
2010-12-20 13:06:52 51°40.965 2°44.791 7.6322 3.587555 34.788246 0.253098
2010-12-20 13:07:52 51°41.192 2°44.938 7.6296 3.58745 34.782911 0.253098
2010-12-20 13:08:52 51°41.42 2°45.086 7.6255 3.588399 34.79147 0.253098
2010-12-20 13:09:52 51°41.646 2°45.235 7.618 3.587344 34.785971 0.253098
2010-12-20 13:10:52 51°41.874 2°45.383 7.6107 3.586817 34.787839 0.253098
2010-12-20 13:11:52 51°42.102 2°45.531 7.6186 3.58629 34.785508 0.253098
2010-12-20 13:12:52 51°42.33 2°45.679 7.6231 3.586923 34.786458 0.253098
2010-12-20 13:13:52 51°42.559 2°45.814 7.6276 3.587344 34.786811 0.253098
2010-12-20 13:14:52 51°42.784 2°45.756 7.6335 3.587134 34.787054 0.218274
2010-12-20 13:15:52 51°42.94 2°45.511 7.6461 3.58745 34.783751 0.253098
2010-12-20 13:16:52 51°43.075 2°45.232 7.67 3.589664 34.782461 0.253098
2010-12-20 13:17:52 51°43.211 2°44.955 7.6932 3.5923 34.789074 0.253098
2010-12-20 13:18:52 51°43.347 2°44.678 7.7086 3.594197 34.79276 0.218274
2010-12-20 13:19:52 51°43.482 2°44.4 7.7382 3.596517 34.797637 0.218274
2010-12-20 13:20:52 51°43.618 2°44.124 7.7646 3.59852 34.790739 0.253098
2010-12-20 13:21:52 51°43.637 2°43.833 7.7977 3.601472 34.801583 0.253098
2010-12-20 13:22:52 51°43.5 2°43.634 7.8271 3.605268 34.808948 0.218274
2010-12-20 13:23:52 51°43.326 2°43.512 7.8314 3.607798 34.810236 0.218274
2010-12-20 13:24:52 51°43.158 2°43.371 7.8354 3.609169 34.81577 0.218274
2010-12-20 13:25:52 51°42.989 2°43.23 7.8495 3.609591 34.81362 0.218274
2010-12-20 13:26:52 51°42.821 2°43.079 7.8334 3.610118 34.817609 0.253098
2010-12-20 13:27:52 51°42.644 2°42.959 7.8416 3.60938 34.816364 0.218274
2010-12-20 13:28:52 51°42.458 2°42.871 7.8347 3.609907 34.819519 0.218274
2010-12-20 13:29:52 51°42.274 2°42.783 7.8367 3.609696 34.817256 0.218274
2010-12-20 13:30:52 51°42.089 2°42.694 7.8295 3.609274 34.815232 0.253098
2010-12-20 13:31:52 51°41.902 2°42.601 7.826 3.608747 34.810407 0.253098
2010-12-20 13:32:52 51°41.718 2°42.512 7.8157 3.608747 34.817086 0.218274
2010-12-20 13:33:52 51°41.531 2°42.422 7.8192 3.608009 34.811666 0.253098
2010-12-20 13:34:52 51°41.347 2°42.331 7.8053 3.607271 34.81042 0.253098
2010-12-20 13:35:52 51°41.163 2°42.239 7.8101 3.606217 34.804106 0.253098
2010-12-20 13:36:52 51°40.977 2°42.152 7.8068 3.607271 34.81209 0.253098
2010-12-20 13:37:52 51°40.791 2°42.065 7.8039 3.606744 34.810604 0.253098
2010-12-20 13:38:52 51°40.605 2°41.973 7.8033 3.606428 34.811383 0.253098
2010-12-20 13:39:52 51°40.419 2°41.883 7.8014 3.606849 34.815914 0.218274
2010-12-20 13:40:52 51°40.234 2°41.791 7.7956 3.606322 34.81025 0.218274
2010-12-20 13:41:52 51°40.049 2°41.7 7.8017 3.606111 34.811326 0.253098
2010-12-20 13:42:52 51°39.863 2°41.609 7.8049 3.606955 34.810363 0.253098
2010-12-20 13:43:52 51°39.679 2°41.516 7.7978 3.607166 34.81597 0.218274
2010-12-20 13:44:52 51°39.495 2°41.428 7.7978 3.606849 34.816749 0.253098
2010-12-20 13:45:52 51°39.312 2°41.339 7.7975 3.60706 34.816508 0.253098
2010-12-20 13:46:52 51°39.131 2°41.256 7.7977 3.60706 34.822357 0.253098
2010-12-20 13:47:52 51°38.949 2°41.161 7.7964 3.607377 34.825756 0.218274
2010-12-20 13:48:52 51°38.767 2°41.07 7.7919 3.607271 34.828803 0.218274
2010-12-20 13:49:52 51°38.584 2°40.98 7.7818 3.606428 34.827263 0.253098
2010-12-20 13:50:52 51°38.401 2°40.883 7.774 3.605584 34.828232 0.253098
2010-12-20 13:51:52 51°38.22 2°40.788 7.7463 3.604952 34.834818 0.253098
2010-12-20 13:52:52 51°38.039 2°40.69 7.7272 3.603265 34.832579 0.253098
2010-12-20 13:53:52 51°37.857 2°40.591 7.7099 3.601262 34.829448 0.253098
2010-12-20 13:54:52 51°37.674 2°40.49 7.6984 3.600629 34.836046 0.253098
2010-12-20 13:55:52 51°37.492 2°40.388 7.6877 3.599259 34.836378 0.253098
2010-12-20 13:56:52 51°37.31 2°40.286 7.6969 3.598942 34.838003 0.253098
2010-12-20 13:57:52 51°37.128 2°40.183 7.7026 3.59968 34.837566 0.253098
2010-12-20 13:58:52 51°36.947 2°40.079 7.6979 3.599575 34.837269 0.287922
2010-12-20 13:59:52 51°36.767 2°39.972 7.6944 3.599469 34.841166 0.287922
2010-12-20 14:00:52 51°36.585 2°39.864 7.6857 3.599575 34.84314 0.253098
2010-12-20 14:01:52 51°36.403 2°39.755 7.673 3.597888 34.83755 0.287922
2010-12-20 14:02:52 51°36.222 2°39.648 7.666 3.596623 34.830629 0.253098
2010-12-20 14:03:52 51°36.04 2°39.54 7.6539 3.595885 34.832745 0.253098
2010-12-20 14:04:52 51°35.859 2°39.432 7.6509 3.594198 34.82883 0.287922
2010-12-20 14:05:52 51°35.678 2°39.321 7.6288 3.593038 34.82472 0.253098
2010-12-20 14:06:52 51°35.495 2°39.214 7.6272 3.591984 34.821746 0.253098
2010-12-20 14:07:52 51°35.31 2°39.119 7.62 3.591351 34.822482 0.287922
2010-12-20 14:08:52 51°35.127 2°39.021 7.6001 3.589453 34.816287 0.253098
2010-12-20 14:09:52 51°34.945 2°38.932 7.5702 3.587556 34.812612 0.253098
2010-12-20 14:10:52 51°34.761 2°38.835 7.568 3.585236 34.806903 0.253098
2010-12-20 14:11:52 51°34.576 2°38.735 7.5652 3.58492 34.810216 0.253098
2010-12-20 14:12:52 51°34.392 2°38.632 7.5768 3.584604 34.809323 0.287922
2010-12-20 14:13:52 51°34.208 2°38.528 7.5631 3.584604 34.803433 0.253098
2010-12-20 14:14:52 51°34.023 2°38.428 7.5444 3.5826 34.795248 0.287922
2010-12-20 14:15:52 51°33.835 2°38.33 7.5215 3.580175 34.786707 0.253098
2010-12-20 14:16:52 51°33.651 2°38.226 7.5031 3.577118 34.773844 0.218274
2010-12-20 14:17:52 51°33.465 2°38.124 7.4761 3.57406 34.762656 0.253098
2010-12-20 14:18:52 51°33.28 2°38.02 7.452 3.57037 34.747138 0.253098
2010-12-20 14:19:52 51°33.094 2°37.92 7.4413 3.566997 34.733346 0.253098
2010-12-20 14:20:52 51°32.908 2°37.815 7.4279 3.564993 34.721755 0.253098
2010-12-20 14:21:52 51°32.723 2°37.711 7.4268 3.562779 34.714616 0.287922
2010-12-20 14:22:52 51°32.539 2°37.609 7.4172 3.561936 34.708002 0.253098
2010-12-20 14:23:52 51°32.354 2°37.506 7.4077 3.560987 34.706144 0.253098
2010-12-20 14:24:52 51°32.171 2°37.404 7.3831 3.558878 34.695081 0.253098
2010-12-20 14:25:52 51°31.987 2°37.3 7.3563 3.556664 34.689615 0.253098
2010-12-20 14:26:52 51°31.802 2°37.197 7.3559 3.553712 34.68373 0.253098
2010-12-20 14:27:44 51°2.55 2°50.015 -999 -999 -999 -999
2010-12-20 14:28:12 51°31.556 2°37.061 7.3573 3.553712 34.678667 0.253098
2010-12-20 14:29:12 51°31.373 2°36.958 7.3333 3.552974 34.674874 0.287922
2010-12-20 14:30:12 51°31.189 2°36.855 7.2955 3.549074 34.660361 0.253098
2010-12-20 14:31:12 51°31.005 2°36.752 7.2391 3.544013 34.642517 0.253098
2010-12-20 14:32:12 51°30.82 2°36.646 7.2039 3.535579 34.609907 0.253098
2010-12-20 14:33:12 51°30.636 2°36.543 7.1516 3.529359 34.586129 0.253098
2010-12-20 14:34:12 51°30.452 2°36.445 7.0938 3.52335 34.561229 0.253098
2010-12-20 14:35:12 51°30.268 2°36.339 7.0489 3.51597 34.532337 0.253098
2010-12-20 14:36:12 51°30.083 2°36.237 6.998 3.50975 34.510982 0.253098
2010-12-20 14:37:12 51°29.898 2°36.139 6.9703 3.501527 34.469369 0.253098
2010-12-20 14:38:12 51°29.715 2°36.039 6.9367 3.497521 34.456898 0.253098
2010-12-20 14:39:12 51°29.53 2°35.932 6.9008 3.491723 34.424774 0.253098
2010-12-20 14:40:12 51°29.344 2°35.831 6.9351 3.48719 34.401389 0.253098
2010-12-20 14:41:12 51°29.159 2°35.729 6.9356 3.491196 34.413059 0.253098
2010-12-20 14:42:12 51°28.974 2°35.629 6.9247 3.491512 34.416524 0.287922
2010-12-20 14:43:12 51°28.779 2°35.591 6.913 3.489088 34.403525 0.253098
2010-12-20 14:44:12 51°28.582 2°35.619 6.893 3.486874 34.397073 0.218274
2010-12-20 14:45:12 51°28.396 2°35.734 6.8571 3.483079 34.37412 0.253098
2010-12-20 14:46:12 51°28.245 2°35.969 6.8255 3.477175 34.346679 0.253098
2010-12-20 14:47:12 51°28.1 2°36.218 6.8076 3.472853 34.326381 0.253098
2010-12-20 14:48:12 51°27.953 2°36.465 6.8178 3.472115 34.324218 0.253098
2010-12-20 14:49:12 51°27.806 2°36.711 6.8508 3.474118 34.335182 0.253098
2010-12-20 14:50:12 51°27.66 2°36.957 6.8235 3.47707 34.34043 0.253098
2010-12-20 14:51:12 51°27.515 2°37.202 6.7409 3.470323 34.306228 0.253098
2010-12-20 14:52:12 51°27.367 2°37.443 6.7012 3.457568 34.237293 0.253098
2010-12-20 14:53:12 51°27.223 2°37.686 6.6851 3.450294 34.198828 0.253098
2010-12-20 14:54:12 51°27.078 2°37.931 6.6537 3.446921 34.179504 0.218274
2010-12-20 14:55:12 51°26.935 2°38.173 6.5814 3.440596 34.146311 0.218274
2010-12-20 14:56:12 51°26.79 2°38.412 6.4522 3.42626 34.075596 0.253098
2010-12-20 14:57:12 51°26.644 2°38.655 6.421 3.408235 33.975701 0.253098
2010-12-20 14:58:12 51°26.501 2°38.901 6.3589 3.399381 33.93033 0.253098
2010-12-20 14:59:12 51°26.356 2°39.144 6.3265 3.391792 33.886992 0.218274
2010-12-20 15:00:12 51°26.211 2°39.387 6.3116 3.385468 33.847422 0.253098
2010-12-20 15:01:12 51°26.064 2°39.626 6.2832 3.380725 33.824512 0.253098
2010-12-20 15:02:12 51°25.916 2°39.866 6.266 3.378089 33.806294 0.253098
2010-12-20 15:03:12 51°25.768 2°40.102 6.2536 3.377352 33.802347 0.218274
2010-12-20 15:04:12 51°25.62 2°40.339 6.2463 3.375454 33.798269 0.253098
2010-12-20 15:05:12 51°25.473 2°40.575 6.2007 3.372082 33.777782 0.218274
2010-12-20 15:06:12 51°25.329 2°40.816 6.135 3.365336 33.744419 0.253098
2010-12-20 15:07:12 51°25.184 2°41.058 6.0529 3.354691 33.691375 0.253098
2010-12-20 15:08:12 51°25.039 2°41.3 6.008 3.341938 33.635952 0.253098
2010-12-20 15:09:12 51°24.891 2°41.538 5.9482 3.332663 33.587698 0.253098
2010-12-20 15:10:12 51°24.745 2°41.78 5.9259 3.326023 33.556894 0.253098
2010-12-20 15:11:12 51°24.599 2°42.021 5.9002 3.322018 33.537637 0.218274
2010-12-20 15:12:12 51°24.451 2°42.264 5.8687 3.318329 33.523612 0.218274
2010-12-20 15:13:12 51°24.299 2°42.501 5.8734 3.314641 33.50445 0.218274
2010-12-20 15:14:12 51°24.148 2°42.739 5.8606 3.316538 33.507798 0.218274
2010-12-20 15:15:12 51°23.997 2°42.977 5.8276 3.3119 33.487375 0.218274
2010-12-20 15:16:12 51°23.847 2°43.214 5.7668 3.303047 33.436675 0.218274
2010-12-20 15:17:12 51°23.697 2°43.452 5.7198 3.294511 33.383452 0.218274
2010-12-20 15:18:12 51°23.544 2°43.685 5.6808 3.286607 33.334688 0.253098
2010-12-20 15:19:12 51°23.392 2°43.916 5.674 3.279651 33.290548 0.253098
2010-12-20 15:20:12 51°23.233 2°44.139 5.6266 3.274803 33.258145 0.218274
2010-12-20 15:21:12 51°23.076 2°44.368 5.569 3.268375 33.223248 0.253098
2010-12-20 15:22:12 51°22.92 2°44.597 5.5116 3.259944 33.181915 0.218274
2010-12-20 15:23:12 51°22.763 2°44.824 5.4042 3.248036 33.121681 0.253098
2010-12-20 15:24:12 51°22.605 2°45.049 5.3755 3.232018 33.025828 0.218274
2010-12-20 15:25:12 51°22.447 2°45.276 5.3189 3.225063 32.983741 0.218274
2010-12-20 15:26:12 51°22.29 2°45.504 5.2157 3.216844 32.93834 0.253098
2010-12-20 15:27:12 51°22.132 2°45.728 5.2174 3.198719 32.845172 0.218274
2010-12-20 15:28:12 51°21.965 2°45.935 5.1528 3.194399 32.805422 0.253098
2010-12-20 15:29:12 51°21.8 2°46.146 5.1013 3.18892 32.773798 0.218274
2010-12-20 15:30:12 51°21.634 2°46.355 5.0751 3.175116 32.698477 0.253098
2010-12-20 15:31:12 51°21.467 2°46.556 4.9316 3.165528 32.628342 0.253098
2010-12-20 15:32:12 51°21.298 2°46.754 4.8755 3.147826 32.530169 0.218274
2010-12-20 15:33:12 51°21.129 2°46.955 4.8629 3.137816 32.462526 0.218274
2010-12-20 15:34:12 51°20.962 2°47.161 4.8441 3.133602 32.441545 0.253098
2010-12-20 15:35:12 51°20.796 2°47.369 4.7767 3.127913 32.411306 0.218274
2010-12-20 15:36:12 51°20.631 2°47.577 4.6644 3.116218 32.352184 0.218274
2010-12-20 15:37:12 51°20.465 2°47.787 4.6314 3.106314 32.294689 0.253098
2010-12-20 15:38:12 51°20.298 2°47.996 4.6347 3.099993 32.250124 0.218274
2010-12-20 15:39:12 51°20.132 2°48.208 4.6374 3.097359 32.230899 0.18345
2010-12-20 15:40:12 51°19.968 2°48.419 4.4416 3.09483 32.212025 0.218274
2010-12-20 15:41:12 51°19.803 2°48.624 4.3289 3.061645 32.03214 0.253098
2010-12-20 15:42:12 51°19.636 2°48.83 4.3024 3.045842 31.932824 0.253098
2010-12-20 15:43:12 51°19.468 2°49.034 4.3203 3.043103 31.909608 0.218274
2010-12-20 15:44:12 51°19.303 2°49.235 4.2497 3.042576 31.889003 0.218274
2010-12-20 15:45:12 51°19.135 2°49.435 4.2453 3.029198 31.819088 0.218274
2010-12-20 15:46:12 51°18.968 2°49.631 4.194 3.029514 31.799741 0.218274
2010-12-20 15:47:12 51°18.803 2°49.833 4.2095 3.022667 31.779897 0.253098
2010-12-20 15:48:12 51°18.636 2°50.036 4.1608 3.02214 31.788281 0.253098
2010-12-20 15:49:12 51°18.468 2°50.239 4.1071 3.019296 31.770572 0.253098
2010-12-20 15:50:12 51°18.301 2°50.444 4.1346 3.014977 31.757036 0.253098
2010-12-20 15:51:12 51°18.137 2°50.657 4.1053 3.016662 31.761279 0.253098
2010-12-20 15:52:12 51°17.989 2°50.895 4.1163 3.011817 31.742451 0.253098
2010-12-20 15:53:12 51°17.852 2°51.147 4.0721 3.012449 31.742977 0.287922
2010-12-20 15:54:12 51°17.715 2°51.398 4.0558 3.006761 31.724558 0.287922
2010-12-20 15:55:12 51°17.577 2°51.647 4.014 3.009605 31.749165 0.218274
2010-12-20 15:56:12 51°17.435 2°51.895 3.9263 2.99233 31.641648 0.218274
2010-12-20 15:57:12 51°17.27 2°52.102 3.9025 2.98148 31.537085 0.218274
2010-12-20 15:58:12 51°17.085 2°52.27 3.7851 2.970841 31.481788 0.287922
2010-12-20 15:59:12 51°16.901 2°52.437 3.6715 2.933449 31.208693 0.253098
2010-12-20 16:00:12 51°16.715 2°52.605 3.5973 2.913227 31.038989 0.253098
2010-12-20 16:01:12 51°16.528 2°52.775 3.5872 2.903221 30.959427 0.287922
2010-12-20 16:02:12 51°16.341 2°52.945 3.5532 2.900588 30.920827 0.287922
2010-12-20 16:03:12 51°16.154 2°53.114 3.477 2.882157 30.785799 0.287922
2010-12-20 16:04:12 51°15.97 2°53.285 3.3983 2.870678 30.684223 0.322746
2010-12-20 16:05:12 51°15.788 2°53.463 3.3102 2.837189 30.438494 0.322746
2010-12-20 16:06:12 51°15.601 2°53.629 3.3842 2.831608 30.353204 0.287922
2010-12-20 16:07:12 51°15.413 2°53.794 3.8612 2.832345 30.358566 0.322746
2010-12-20 16:08:12 51°15.242 2°53.988 4.0039 2.832555 30.359381 0.287922
2010-12-20 16:09:12 51°15.089 2°54.215 4.1529 2.832977 30.350127 0.253098
2010-12-20 16:10:12 51°14.953 2°54.476 4.3266 2.833924 30.329548 0.253098
2010-12-20 16:11:15 51°14.777 2°54.712 4.491 2.835293 30.31148 0.287922
2010-12-20 16:12:13 51°14.601 2°54.894 4.6542 2.837399 30.304634 0.253098
2010-12-20 16:13:12 51°14.429 2°55.09 4.8435 2.840136 30.302745 0.253098
2010-12-20 16:14:13 51°14.263 2°55.287 4.9938 2.843611 30.310364 0.253098
2010-12-20 16:15:15 51°14.11 2°55.428 5.1697 2.847613 30.322497 0.253098
2010-12-20 16:16:15 51°13.975 2°55.52 5.2868 2.85193 30.336662 0.287922
2010-12-20 16:17:13 51°13.857 2°55.597 5.4346 2.856353 30.35287 0.253098
2010-12-20 16:18:12 51°13.772 2°55.695 5.5536 2.860671 30.366164 0.287922
2010-12-20 16:19:16 51°13.713 2°55.809 5.6171 2.865094 30.377361 0.287922
2010-12-20 16:20:16 51°13.678 2°55.895 5.6744 2.869517 30.39433 0.287922
2010-12-20 16:21:16 51°13.663 2°55.957 5.9386 2.873834 30.41087 0.287922